Time;durP1;ratioP1;P1;durP2;ratioP2;P2;SDS_P1;SDS_P2;PMS_P1;PMS_P2;Temp;Humidity;BMP_temperature;BMP_pressure;BME280_temperature;BME280_humidity;BME280_pressure;Samples;Min_cycle;Max_cycle;Signal;HPM_P1;HPM_P2
2022/05/19 00:02:14;;;;;;;32.70;25.17;;;;;;;;;;5107629;28;20027;-73
2022/05/19 00:04:41;;;;;;;30.87;25.33;;;;;;;;;;5112658;28;20045;-73
2022/05/19 00:07:09;;;;;;;33.60;26.20;;;;;;;;;;5112751;28;20023;-73
2022/05/19 00:09:36;;;;;;;39.90;29.10;;;;;;;;;;5110989;28;20031;-74
2022/05/19 00:12:05;;;;;;;39.00;29.37;;;;;;;;;;5107163;28;20020;-73
2022/05/19 00:14:32;;;;;;;37.37;29.73;;;;;;;;;;5107270;28;20079;-73
2022/05/19 00:16:59;;;;;;;37.80;29.67;;;;;;;;;;5107360;28;20431;-73
2022/05/19 00:19:26;;;;;;;35.47;27.13;;;;;;;;;;5107777;28;20075;-73
2022/05/19 00:21:53;;;;;;;39.37;28.30;;;;;;;;;;5112584;28;20032;-73
2022/05/19 00:24:20;;;;;;;33.47;27.87;;;;;;;;;;5110818;28;20020;-73
2022/05/19 00:26:47;;;;;;;32.10;26.43;;;;;;;;;;5091882;28;20028;-73
2022/05/19 00:29:13;;;;;;;39.70;30.10;;;;;;;;;;5092099;28;20016;-73
2022/05/19 00:31:41;;;;;;;38.07;28.50;;;;;;;;;;5091432;28;20837;-73
2022/05/19 00:34:08;;;;;;;36.10;29.03;;;;;;;;;;5087002;28;20016;-72
2022/05/19 00:36:34;;;;;;;36.17;29.97;;;;;;;;;;5086669;28;20035;-72
2022/05/19 00:39:01;;;;;;;37.40;29.47;;;;;;;;;;5086884;28;20031;-72
2022/05/19 00:41:28;;;;;;;43.90;29.77;;;;;;;;;;5086790;28;20534;-72
2022/05/19 00:43:59;;;;;;;34.10;28.10;;;;;;;;;;5091857;28;20032;-72
2022/05/19 00:46:46;;;;;;;30.53;25.93;;;;;;;;;;5109344;28;20020;-73
2022/05/19 00:49:33;;;;;;;36.03;25.77;;;;;;;;;;5107598;28;20031;-74
2022/05/19 00:52:00;;;;;;;33.83;26.97;;;;;;;;;;5092108;28;20024;-73
2022/05/19 00:54:35;;;;;;;34.13;26.73;;;;;;;;;;5090440;28;20020;-73
2022/05/19 00:57:04;;;;;;;32.70;25.13;;;;;;;;;;5086442;28;20032;-73
2022/05/19 00:59:34;;;;;;;30.47;24.43;;;;;;;;;;5086804;28;20035;-73
2022/05/19 01:02:02;;;;;;;30.23;23.20;;;;;;;;;;5086867;28;20449;-73
2022/05/19 01:04:31;;;;;;;32.00;25.90;;;;;;;;;;5087495;28;20063;-73
2022/05/19 01:07:05;;;;;;;32.87;24.13;;;;;;;;;;5094455;28;20483;-73
2022/05/19 01:09:35;;;;;;;33.53;25.17;;;;;;;;;;5095678;28;20039;-73
2022/05/19 01:12:02;;;;;;;32.03;24.37;;;;;;;;;;5095551;28;20024;-73
2022/05/19 01:14:30;;;;;;;29.23;24.17;;;;;;;;;;5095625;28;20154;-73
2022/05/19 01:16:57;;;;;;;39.60;27.27;;;;;;;;;;5093530;28;20035;-73
2022/05/19 01:19:32;;;;;;;33.17;24.83;;;;;;;;;;5097066;28;20724;-72
2022/05/19 01:22:02;;;;;;;34.87;23.90;;;;;;;;;;5099285;28;20511;-72
2022/05/19 01:24:35;;;;;;;36.00;25.43;;;;;;;;;;5095542;28;20093;-73
2022/05/19 01:27:03;;;;;;;35.00;25.90;;;;;;;;;;5099994;28;20474;-73
2022/05/19 01:29:30;;;;;;;31.40;24.77;;;;;;;;;;5096730;28;20077;-72
2022/05/19 01:31:59;;;;;;;34.73;24.13;;;;;;;;;;5104122;28;20098;-72
2022/05/19 01:34:27;;;;;;;29.27;22.43;;;;;;;;;;5114607;28;20111;-73
2022/05/19 01:36:54;;;;;;;32.37;21.73;;;;;;;;;;5115296;28;20358;-72
2022/05/19 01:39:23;;;;;;;31.47;22.60;;;;;;;;;;5113504;28;20027;-73
2022/05/19 01:42:08;;;;;;;32.13;19.70;;;;;;;;;;5110030;28;20019;-72
2022/05/19 01:44:38;;;;;;;26.20;20.00;;;;;;;;;;5110006;28;20024;-72
2022/05/19 01:47:19;;;;;;;26.27;18.97;;;;;;;;;;5110074;28;20482;-72
2022/05/19 01:49:48;;;;;;;27.43;20.70;;;;;;;;;;5112390;28;20089;-72
2022/05/19 01:52:18;;;;;;;25.43;19.00;;;;;;;;;;5115265;28;20028;-72
2022/05/19 01:54:52;;;;;;;28.67;21.53;;;;;;;;;;5113991;28;20434;-73
2022/05/19 01:57:41;;;;;;;27.55;18.70;;;;;;;;;;5098532;28;20024;-72
2022/05/19 02:00:14;;;;;;;24.90;18.47;;;;;;;;;;5082105;28;20032;-72
2022/05/19 02:02:41;;;;;;;23.27;17.90;;;;;;;;;;5090709;28;20024;-72
2022/05/19 02:05:14;;;;;;;22.73;18.23;;;;;;;;;;5089094;28;20035;-73
2022/05/19 02:07:44;;;;;;;25.03;18.33;;;;;;;;;;5090229;28;20476;-72
2022/05/19 02:10:14;;;;;;;24.37;17.87;;;;;;;;;;5089611;28;20020;-72
2022/05/19 02:12:42;;;;;;;19.70;16.17;;;;;;;;;;5112963;28;20023;-73
2022/05/19 02:15:09;;;;;;;24.80;18.10;;;;;;;;;;5114791;28;20466;-72
2022/05/19 02:17:36;;;;;;;22.07;17.70;;;;;;;;;;5114273;28;20024;-72
2022/05/19 02:20:06;;;;;;;22.83;17.13;;;;;;;;;;5114850;28;20027;-73
2022/05/19 02:22:35;;;;;;;23.87;18.13;;;;;;;;;;5114365;28;20110;-73
2022/05/19 02:25:08;;;;;;;21.80;18.37;;;;;;;;;;5108720;28;20280;-73
2022/05/19 02:27:44;;;;;;;23.30;17.53;;;;;;;;;;5109394;28;20096;-73
2022/05/19 02:30:14;;;;;;;29.13;19.77;;;;;;;;;;5109044;28;20032;-73
2022/05/19 02:32:41;;;;;;;27.53;21.67;;;;;;;;;;5105091;28;20031;-73
2022/05/19 02:35:08;;;;;;;27.10;21.07;;;;;;;;;;5112550;28;20024;-73
2022/05/19 02:37:36;;;;;;;26.63;21.77;;;;;;;;;;5114147;28;20036;-72
2022/05/19 02:40:04;;;;;;;34.53;26.77;;;;;;;;;;5092757;28;20114;-76
2022/05/19 02:42:30;;;;;;;31.40;26.13;;;;;;;;;;5093781;28;20038;-74
2022/05/19 02:44:57;;;;;;;37.70;28.03;;;;;;;;;;5093828;28;20067;-73
2022/05/19 02:47:24;;;;;;;32.67;27.63;;;;;;;;;;5090354;28;20024;-72
2022/05/19 02:49:50;;;;;;;33.77;27.03;;;;;;;;;;5088696;28;20020;-73
2022/05/19 02:52:17;;;;;;;33.57;28.43;;;;;;;;;;5088664;28;20410;-72
2022/05/19 02:54:44;;;;;;;33.80;27.73;;;;;;;;;;5103144;28;20028;-72
2022/05/19 02:57:17;;;;;;;37.43;31.10;;;;;;;;;;5111612;28;20016;-72
2022/05/19 02:59:46;;;;;;;41.00;29.87;;;;;;;;;;5114232;28;20020;-72
2022/05/19 03:02:13;;;;;;;35.13;29.00;;;;;;;;;;5113995;28;20493;-72
2022/05/19 03:04:41;;;;;;;36.47;32.03;;;;;;;;;;5113478;28;20088;-72
2022/05/19 03:07:08;;;;;;;44.10;35.37;;;;;;;;;;5095676;28;20020;-72
2022/05/19 03:09:35;;;;;;;42.13;34.27;;;;;;;;;;5110740;28;20355;-72
2022/05/19 03:12:01;;;;;;;46.17;37.40;;;;;;;;;;5108499;28;20031;-72
2022/05/19 03:14:30;;;;;;;42.47;36.10;;;;;;;;;;5108425;28;21478;-72
2022/05/19 03:16:57;;;;;;;44.77;36.33;;;;;;;;;;5108540;28;20364;-72
2022/05/19 03:19:23;;;;;;;48.17;38.77;;;;;;;;;;5110915;28;20016;-72
2022/05/19 03:21:50;;;;;;;47.00;37.80;;;;;;;;;;5112372;28;20063;-72
2022/05/19 03:24:17;;;;;;;47.27;38.27;;;;;;;;;;5113745;28;20035;-72
2022/05/19 03:26:43;;;;;;;45.53;38.37;;;;;;;;;;5113540;28;20106;-72
2022/05/19 03:29:10;;;;;;;49.00;39.70;;;;;;;;;;5112487;28;20024;-73
2022/05/19 03:31:38;;;;;;;43.33;35.07;;;;;;;;;;5105722;28;20032;-72
2022/05/19 03:34:05;;;;;;;44.43;30.77;;;;;;;;;;5088041;28;20027;-72
2022/05/19 03:36:32;;;;;;;44.73;31.80;;;;;;;;;;5088680;28;20032;-71
2022/05/19 03:38:59;;;;;;;40.53;28.03;;;;;;;;;;5103600;28;20038;-69
2022/05/19 03:41:26;;;;;;;36.63;27.07;;;;;;;;;;5109247;28;20051;-67
2022/05/19 03:43:52;;;;;;;33.37;26.23;;;;;;;;;;5112788;28;20034;-69
2022/05/19 03:46:19;;;;;;;33.83;25.43;;;;;;;;;;5112867;28;20045;-67
2022/05/19 03:48:46;;;;;;;35.60;28.03;;;;;;;;;;5112789;28;20102;-68
2022/05/19 03:51:18;;;;;;;39.03;29.50;;;;;;;;;;5112957;28;20052;-68
2022/05/19 03:53:45;;;;;;;34.37;26.60;;;;;;;;;;5110379;28;20366;-72
2022/05/19 03:56:12;;;;;;;42.13;28.10;;;;;;;;;;5107988;28;20030;-72
2022/05/19 03:58:38;;;;;;;41.47;24.90;;;;;;;;;;5107910;28;20394;-70
2022/05/19 04:01:06;;;;;;;43.33;29.30;;;;;;;;;;5107712;28;20069;-70
2022/05/19 04:03:32;;;;;;;36.40;26.70;;;;;;;;;;5108677;28;20351;-69
2022/05/19 04:05:59;;;;;;;34.93;28.23;;;;;;;;;;5112828;28;20379;-68
2022/05/19 04:08:26;;;;;;;42.67;28.20;;;;;;;;;;5112968;28;20019;-65
2022/05/19 04:10:53;;;;;;;36.37;26.40;;;;;;;;;;5110989;28;20020;-72
2022/05/19 04:13:19;;;;;;;35.40;25.20;;;;;;;;;;5112741;28;20024;-73
2022/05/19 04:15:46;;;;;;;31.00;24.67;;;;;;;;;;5111743;28;20028;-73
2022/05/19 04:18:14;;;;;;;34.73;25.70;;;;;;;;;;5107672;28;20114;-73
2022/05/19 04:20:41;;;;;;;33.70;25.03;;;;;;;;;;5107741;28;20024;-73
2022/05/19 04:23:08;;;;;;;40.90;26.17;;;;;;;;;;5107137;28;20031;-73
2022/05/19 04:25:35;;;;;;;38.23;27.73;;;;;;;;;;5105593;28;20077;-72
2022/05/19 04:28:02;;;;;;;36.13;26.03;;;;;;;;;;5112494;28;20027;-73
2022/05/19 04:30:29;;;;;;;34.10;25.13;;;;;;;;;;5112360;28;20016;-72
2022/05/19 04:32:56;;;;;;;39.80;25.60;;;;;;;;;;5112714;28;20023;-73
2022/05/19 04:35:23;;;;;;;35.70;25.83;;;;;;;;;;5112679;28;20076;-72
2022/05/19 04:37:50;;;;;;;32.87;23.37;;;;;;;;;;5112224;28;20027;-73
2022/05/19 04:40:17;;;;;;;32.63;23.53;;;;;;;;;;5109316;28;20047;-73
2022/05/19 04:42:44;;;;;;;33.43;23.67;;;;;;;;;;5111852;28;20023;-72
2022/05/19 04:45:12;;;;;;;46.83;27.83;;;;;;;;;;5111712;28;20059;-73
2022/05/19 04:47:39;;;;;;;38.93;27.20;;;;;;;;;;5111581;28;20023;-73
2022/05/19 04:50:07;;;;;;;38.33;29.07;;;;;;;;;;5115995;28;20046;-72
2022/05/19 04:52:34;;;;;;;41.40;28.20;;;;;;;;;;5115744;28;20019;-72
2022/05/19 04:55:00;;;;;;;41.80;30.47;;;;;;;;;;5116489;28;20031;-72
2022/05/19 04:57:27;;;;;;;36.00;28.23;;;;;;;;;;5116585;28;20031;-71
2022/05/19 04:59:54;;;;;;;38.90;27.50;;;;;;;;;;5115986;28;20019;-72
2022/05/19 05:02:20;;;;;;;41.07;27.97;;;;;;;;;;5111571;28;20106;-71
2022/05/19 05:04:47;;;;;;;37.57;27.50;;;;;;;;;;5111208;28;20052;-72
2022/05/19 05:07:14;;;;;;;39.20;29.43;;;;;;;;;;5111268;28;20355;-71
2022/05/19 05:09:40;;;;;;;36.93;26.87;;;;;;;;;;5111242;28;20318;-72
2022/05/19 05:12:07;;;;;;;36.43;27.07;;;;;;;;;;5115056;28;20026;-71
2022/05/19 05:14:34;;;;;;;34.63;28.13;;;;;;;;;;5116128;28;20028;-71
2022/05/19 05:17:01;;;;;;;39.43;29.17;;;;;;;;;;5115835;28;20035;-70
2022/05/19 05:19:28;;;;;;;38.47;28.80;;;;;;;;;;5116077;28;20022;-70
2022/05/19 05:21:58;;;;;;;40.70;29.00;;;;;;;;;;5107904;28;20116;-72
2022/05/19 05:24:25;;;;;;;41.17;28.20;;;;;;;;;;5111577;28;20045;-71
2022/05/19 05:26:52;;;;;;;41.60;28.57;;;;;;;;;;5110605;28;20011;-71
2022/05/19 05:29:19;;;;;;;41.20;30.87;;;;;;;;;;5110304;28;20024;-71
2022/05/19 05:31:46;;;;;;;37.83;27.90;;;;;;;;;;5110270;28;20047;-71
2022/05/19 05:34:13;;;;;;;41.80;29.13;;;;;;;;;;5113494;28;20027;-71
2022/05/19 05:36:40;;;;;;;41.17;29.40;;;;;;;;;;5115553;28;20106;-71
2022/05/19 05:39:07;;;;;;;38.13;29.47;;;;;;;;;;5115594;28;20023;-71
2022/05/19 05:41:33;;;;;;;42.87;33.53;;;;;;;;;;5115299;28;20099;-71
2022/05/19 05:44:00;;;;;;;47.27;37.40;;;;;;;;;;5115778;28;20019;-71
2022/05/19 05:46:27;;;;;;;43.37;37.33;;;;;;;;;;5111766;28;20317;-71
2022/05/19 05:48:54;;;;;;;48.00;36.53;;;;;;;;;;5098310;28;20018;-71
2022/05/19 05:51:20;;;;;;;51.97;36.13;;;;;;;;;;5070470;28;20379;-71
2022/05/19 05:53:47;;;;;;;44.07;35.03;;;;;;;;;;5089331;28;20032;-71
2022/05/19 05:56:15;;;;;;;48.53;36.33;;;;;;;;;;5092171;28;20475;-71
2022/05/19 05:58:43;;;;;;;46.00;35.47;;;;;;;;;;5095609;28;20227;-71
2022/05/19 06:01:10;;;;;;;43.10;35.20;;;;;;;;;;5094896;28;20023;-71
2022/05/19 06:03:37;;;;;;;44.70;36.03;;;;;;;;;;5094522;28;20073;-72
2022/05/19 06:06:04;;;;;;;44.80;33.67;;;;;;;;;;5094579;28;20417;-71
2022/05/19 06:08:31;;;;;;;45.33;30.30;;;;;;;;;;5105084;28;20106;-72
2022/05/19 06:10:59;;;;;;;36.50;30.27;;;;;;;;;;5109462;28;20423;-71
2022/05/19 06:13:26;;;;;;;42.23;31.83;;;;;;;;;;5109437;28;20027;-72
2022/05/19 06:15:53;;;;;;;40.40;32.13;;;;;;;;;;5109072;28;20024;-72
2022/05/19 06:18:20;;;;;;;43.07;32.43;;;;;;;;;;5111663;28;20035;-72
2022/05/19 06:20:47;;;;;;;41.13;30.60;;;;;;;;;;5114750;28;20028;-71
2022/05/19 06:23:16;;;;;;;41.60;30.50;;;;;;;;;;5106747;28;20028;-71
2022/05/19 06:25:43;;;;;;;36.20;28.73;;;;;;;;;;5094107;28;20032;-71
2022/05/19 06:28:09;;;;;;;44.77;28.23;;;;;;;;;;5094276;28;20024;-71
2022/05/19 06:30:36;;;;;;;45.40;34.03;;;;;;;;;;5091502;28;20372;-71
2022/05/19 06:33:05;;;;;;;41.77;30.87;;;;;;;;;;5088763;28;20107;-71
2022/05/19 06:35:32;;;;;;;44.27;31.90;;;;;;;;;;5088669;28;20042;-71
2022/05/19 06:37:59;;;;;;;48.33;33.70;;;;;;;;;;5088549;28;20032;-71
2022/05/19 06:40:27;;;;;;;37.80;30.07;;;;;;;;;;5090336;28;20506;-71
2022/05/19 06:42:54;;;;;;;39.20;30.33;;;;;;;;;;5093785;28;20050;-71
2022/05/19 06:45:23;;;;;;;36.00;28.20;;;;;;;;;;5094116;28;20534;-71
2022/05/19 06:47:52;;;;;;;38.57;29.20;;;;;;;;;;5093724;28;20028;-71
2022/05/19 06:50:20;;;;;;;36.00;29.70;;;;;;;;;;5096244;28;20028;-71
2022/05/19 06:52:50;;;;;;;38.07;30.20;;;;;;;;;;5111270;28;20122;-71
2022/05/19 06:55:18;;;;;;;36.20;28.97;;;;;;;;;;5108879;28;20024;-71
2022/05/19 06:57:44;;;;;;;34.83;27.67;;;;;;;;;;5108356;28;20101;-71
2022/05/19 07:00:13;;;;;;;35.00;25.40;;;;;;;;;;5108274;28;20034;-71
2022/05/19 07:02:44;;;;;;;38.83;28.40;;;;;;;;;;5109477;28;20066;-71
2022/05/19 07:05:11;;;;;;;37.07;26.40;;;;;;;;;;5113359;28;20027;-71
2022/05/19 07:07:38;;;;;;;39.10;27.37;;;;;;;;;;5113838;28;20038;-71
2022/05/19 07:10:06;;;;;;;36.10;26.27;;;;;;;;;;5113770;28;20020;-71
2022/05/19 07:12:35;;;;;;;40.03;30.67;;;;;;;;;;5113724;28;20479;-71
2022/05/19 07:15:02;;;;;;;40.27;29.23;;;;;;;;;;5111353;28;20027;-71
2022/05/19 07:17:28;;;;;;;35.50;28.80;;;;;;;;;;5108049;28;20027;-71
2022/05/19 07:22:40;;;;;;;38.25;28.17;;;;;;;;;;5087858;28;20115;-71
2022/05/19 07:25:08;;;;;;;39.10;28.40;;;;;;;;;;5089522;28;20019;-71
2022/05/19 07:27:37;;;;;;;38.57;28.63;;;;;;;;;;5092630;28;20049;-71
2022/05/19 07:30:05;;;;;;;37.30;28.37;;;;;;;;;;5093097;28;20569;-71
2022/05/19 07:32:31;;;;;;;43.17;30.27;;;;;;;;;;5092993;28;20033;-71
2022/05/19 07:34:58;;;;;;;38.87;30.60;;;;;;;;;;5093092;28;20479;-71
2022/05/19 07:37:25;;;;;;;41.83;29.30;;;;;;;;;;5090812;28;20500;-71
2022/05/19 07:39:53;;;;;;;41.67;30.33;;;;;;;;;;5087431;28;20024;-71
2022/05/19 07:42:20;;;;;;;38.23;29.03;;;;;;;;;;5087213;28;20028;-71
2022/05/19 07:44:47;;;;;;;38.53;28.73;;;;;;;;;;5087580;28;20028;-70
2022/05/19 07:47:14;;;;;;;42.17;31.20;;;;;;;;;;5089185;28;20483;-70
2022/05/19 07:49:41;;;;;;;43.87;31.20;;;;;;;;;;5092676;28;20024;-71
2022/05/19 07:52:08;;;;;;;44.03;32.23;;;;;;;;;;5092738;28;20042;-71
2022/05/19 07:54:35;;;;;;;42.47;31.57;;;;;;;;;;5092753;28;20130;-71
2022/05/19 07:57:03;;;;;;;38.00;28.63;;;;;;;;;;5092303;28;20514;-71
2022/05/19 07:59:30;;;;;;;40.00;29.63;;;;;;;;;;5090664;28;20497;-71
2022/05/19 08:01:57;;;;;;;41.47;30.60;;;;;;;;;;5087172;28;20032;-71
2022/05/19 08:04:25;;;;;;;39.87;30.00;;;;;;;;;;5087233;28;20024;-71
2022/05/19 08:06:52;;;;;;;39.87;30.33;;;;;;;;;;5087035;28;20035;-71
2022/05/19 08:12:05;;;;;;;46.22;30.65;;;;;;;;;;5092242;28;20043;-71
2022/05/19 08:17:17;;;;;;;40.57;30.13;;;;;;;;;;5112629;28;20042;-71
2022/05/19 08:19:46;;;;;;;44.27;30.03;;;;;;;;;;5112906;28;20370;-71
2022/05/19 08:22:13;;;;;;;37.17;28.97;;;;;;;;;;5110011;28;20103;-71
2022/05/19 08:24:39;;;;;;;53.80;37.87;;;;;;;;;;5106949;28;20023;-70
2022/05/19 08:27:06;;;;;;;48.30;31.70;;;;;;;;;;5105265;28;20035;-71
2022/05/19 08:29:34;;;;;;;42.47;32.67;;;;;;;;;;5107177;28;20094;-71
2022/05/19 08:32:01;;;;;;;43.07;32.60;;;;;;;;;;5109013;28;20102;-71
2022/05/19 08:34:28;;;;;;;38.77;30.13;;;;;;;;;;5112442;28;20016;-71
2022/05/19 08:36:55;;;;;;;47.80;33.67;;;;;;;;;;5112442;28;20031;-71
2022/05/19 08:39:24;;;;;;;50.13;35.03;;;;;;;;;;5110760;28;20020;-71
2022/05/19 08:41:57;;;;;;;50.03;34.63;;;;;;;;;;5092139;28;20038;-71
2022/05/19 08:44:29;;;;;;;44.20;34.57;;;;;;;;;;5089818;28;20020;-71
2022/05/19 08:46:57;;;;;;;47.23;35.37;;;;;;;;;;5086662;28;20115;-71
2022/05/19 08:49:42;;;;;;;48.60;33.10;;;;;;;;;;5086591;28;20081;-71
2022/05/19 08:52:10;;;;;;;45.15;32.08;;;;;;;;;;5086645;28;20103;-70
2022/05/19 08:54:38;;;;;;;50.77;32.90;;;;;;;;;;5092274;28;20024;-71
2022/05/19 08:57:35;;;;;;;41.77;30.80;;;;;;;;;;5110286;28;20024;-70
2022/05/19 09:00:02;;;;;;;46.50;32.17;;;;;;;;;;5091993;28;20551;-71
2022/05/19 09:02:45;;;;;;;41.30;30.60;;;;;;;;;;5112278;28;20537;-70
2022/05/19 09:05:29;;;;;;;37.67;30.03;;;;;;;;;;5112068;28;20051;-71
2022/05/19 09:08:05;;;;;;;43.10;30.55;;;;;;;;;;5107228;28;20055;-70
2022/05/19 09:10:35;;;;;;;43.47;31.97;;;;;;;;;;5106952;28;20099;-70
2022/05/19 09:13:10;;;;;;;43.63;30.97;;;;;;;;;;5106855;28;20016;-71
2022/05/19 09:15:38;;;;;;;42.80;32.83;;;;;;;;;;5106850;28;20733;-71
2022/05/19 09:18:05;;;;;;;43.73;32.03;;;;;;;;;;5111592;28;20521;-71
2022/05/19 09:20:48;;;;;;;39.20;30.67;;;;;;;;;;5111825;28;20051;-71
2022/05/19 09:23:14;;;;;;;51.47;33.73;;;;;;;;;;5100274;28;20367;-71
2022/05/19 09:25:45;;;;;;;44.90;31.30;;;;;;;;;;5091830;28;20025;-71
2022/05/19 09:28:12;;;;;;;42.17;31.80;;;;;;;;;;5094567;28;20020;-70
2022/05/19 09:30:41;;;;;;;40.80;31.13;;;;;;;;;;5089990;28;20031;-71
2022/05/19 09:33:18;;;;;;;40.13;30.57;;;;;;;;;;5089627;28;20024;-71
2022/05/19 09:35:48;;;;;;;40.27;31.17;;;;;;;;;;5090102;28;20048;-71
2022/05/19 09:38:34;;;;;;;41.87;31.03;;;;;;;;;;5089808;28;20039;-71
2022/05/19 09:41:03;;;;;;;38.27;28.93;;;;;;;;;;5095162;28;20077;-70
2022/05/19 09:43:36;;;;;;;36.83;28.63;;;;;;;;;;5094956;28;20132;-71
2022/05/19 09:46:05;;;;;;;38.50;28.30;;;;;;;;;;5095292;28;20043;-70
2022/05/19 09:48:33;;;;;;;40.73;32.00;;;;;;;;;;5094928;28;20496;-70
2022/05/19 09:51:05;;;;;;;36.70;27.97;;;;;;;;;;5105633;28;20423;-71
2022/05/19 09:53:37;;;;;;;43.17;32.00;;;;;;;;;;5109502;28;20478;-70
2022/05/19 09:56:08;;;;;;;44.40;32.57;;;;;;;;;;5109777;28;20510;-71
2022/05/19 09:58:37;;;;;;;40.20;29.87;;;;;;;;;;5109651;28;20035;-71
2022/05/19 10:01:06;;;;;;;44.53;30.30;;;;;;;;;;5110870;28;20020;-70
2022/05/19 10:03:43;;;;;;;42.17;31.20;;;;;;;;;;5114959;28;20028;-70
2022/05/19 10:06:21;;;;;;;44.40;31.87;;;;;;;;;;5114693;28;20028;-70
2022/05/19 10:08:48;;;;;;;44.30;32.03;;;;;;;;;;5114983;28;20031;-71
2022/05/19 10:11:18;;;;;;;41.83;31.60;;;;;;;;;;5114876;28;20028;-71
2022/05/19 10:13:57;;;;;;;42.37;31.60;;;;;;;;;;5112297;28;20479;-71
2022/05/19 10:16:32;;;;;;;47.47;33.17;;;;;;;;;;5109601;28;20103;-71
2022/05/19 10:19:06;;;;;;;47.00;32.47;;;;;;;;;;5092659;28;20043;-71
2022/05/19 10:21:39;;;;;;;40.73;30.43;;;;;;;;;;5089140;28;20035;-71
2022/05/19 10:24:21;;;;;;;42.87;31.07;;;;;;;;;;5091794;28;20040;-70
2022/05/19 10:32:59;;;;;;;42.73;29.57;;;;;;;;;;5094164;28;20078;-70
2022/05/19 10:35:38;;;;;;;36.63;27.40;;;;;;;;;;5093058;28;20103;-71
2022/05/19 10:38:21;;;;;;;38.53;28.83;;;;;;;;;;5088492;28;20051;-70
2022/05/19 10:41:06;;;;;;;43.03;29.70;;;;;;;;;;5088591;28;20031;-70
2022/05/19 10:43:39;;;;;;;40.88;30.67;;;;;;;;;;5088700;28;20494;-70
2022/05/19 10:46:12;;;;;;;45.63;29.87;;;;;;;;;;5102495;28;20027;-70
2022/05/19 10:48:44;;;;;;;41.13;31.73;;;;;;;;;;5114218;28;20396;-70
2022/05/19 10:51:11;;;;;;;43.23;30.77;;;;;;;;;;5109355;28;20370;-70
2022/05/19 10:53:58;;;;;;;42.03;29.97;;;;;;;;;;5093653;28;20379;-71
2022/05/19 10:56:31;;;;;;;39.17;28.27;;;;;;;;;;5093288;28;20526;-70
2022/05/19 10:59:03;;;;;;;38.90;27.20;;;;;;;;;;5089922;28;20107;-71
2022/05/19 11:01:30;;;;;;;39.03;28.63;;;;;;;;;;5088212;28;20479;-71
2022/05/19 11:04:15;;;;;;;38.83;28.23;;;;;;;;;;5088091;28;20032;-71
2022/05/19 11:06:51;;;;;;;44.08;30.25;;;;;;;;;;5087669;28;20116;-71
2022/05/19 11:09:36;;;;;;;41.17;29.07;;;;;;;;;;5092380;28;20083;-70
2022/05/19 11:12:21;;;;;;;42.03;30.05;;;;;;;;;;5093566;28;20027;-70
2022/05/19 11:14:51;;;;;;;40.97;28.55;;;;;;;;;;5093298;28;20020;-71
2022/05/19 11:17:38;;;;;;;42.43;30.50;;;;;;;;;;5093314;28;20044;-71
2022/05/19 11:20:11;;;;;;;41.50;28.67;;;;;;;;;;5092071;28;20016;-70
2022/05/19 11:22:39;;;;;;;40.63;29.80;;;;;;;;;;5087723;28;20032;-70
2022/05/19 11:28:19;;;;;;;44.80;31.60;;;;;;;;;;5088108;28;20043;-72
2022/05/19 11:30:45;;;;;;;;;;;;;;;;;;5090849;28;20471;-70
2022/05/19 11:33:21;;;;;;;37.33;25.93;;;;;;;;;;5093015;28;19908;-70
2022/05/19 11:35:53;;;;;;;41.70;29.13;;;;;;;;;;5093026;28;20114;-70
2022/05/19 11:38:26;;;;;;;39.60;27.73;;;;;;;;;;5092622;28;20020;-70
2022/05/19 11:40:58;;;;;;;43.17;27.63;;;;;;;;;;5100982;28;20023;-70
2022/05/19 11:43:54;;;;;;;45.77;32.10;;;;;;;;;;5109567;28;20080;-70
2022/05/19 11:46:22;;;;;;;44.17;29.00;;;;;;;;;;5018034;28;20049;-70
2022/05/19 11:57:33;;;;;;;39.90;29.03;;;;;;;;;;5113006;28;20309;-70
2022/05/19 12:00:00;;;;;;;42.57;29.43;;;;;;;;;;5113191;28;20030;-70
2022/05/19 12:02:48;;;;;;;47.33;28.67;;;;;;;;;;5112839;28;20024;-70
2022/05/19 12:05:20;;;;;;;45.03;30.53;;;;;;;;;;5110069;28;20043;-70
2022/05/19 12:07:46;;;;;;;40.87;28.23;;;;;;;;;;5105737;28;20025;-71
2022/05/19 12:10:17;;;;;;;39.53;29.03;;;;;;;;;;5107243;28;20062;-70
2022/05/19 12:12:46;;;;;;;40.60;30.20;;;;;;;;;;5107003;28;20023;-71
2022/05/19 12:15:19;;;;;;;43.10;30.57;;;;;;;;;;5089050;28;20103;-70
2022/05/19 12:17:47;;;;;;;41.60;30.30;;;;;;;;;;5092331;28;20067;-70
2022/05/19 12:20:34;;;;;;;44.33;29.00;;;;;;;;;;5092265;28;20024;-70
2022/05/19 12:23:15;;;;;;;44.23;29.27;;;;;;;;;;5092120;28;20028;-70
2022/05/19 12:25:44;;;;;;;45.00;29.07;;;;;;;;;;5092475;28;20365;-70
2022/05/19 12:28:19;;;;;;;42.43;29.97;;;;;;;;;;5088269;28;20063;-70
2022/05/19 12:33:51;;;;;;;43.30;30.57;;;;;;;;;;5087159;28;20117;-70
2022/05/19 12:36:25;;;;;;;45.47;31.00;;;;;;;;;;5086765;28;20028;-70
2022/05/19 12:38:52;;;;;;;49.60;31.73;;;;;;;;;;5091991;28;20028;-70
2022/05/19 12:41:24;;;;;;;50.83;31.97;;;;;;;;;;5092083;28;20467;-70
2022/05/19 12:43:53;;;;;;;45.27;31.73;;;;;;;;;;5092186;28;20028;-70
2022/05/19 12:46:37;;;;;;;47.57;31.90;;;;;;;;;;5091995;28;20020;-70
2022/05/19 12:49:18;;;;;;;44.73;31.83;;;;;;;;;;5090909;28;20112;-70
2022/05/19 12:51:55;;;;;;;43.47;28.77;;;;;;;;;;5086406;28;20021;-70
2022/05/19 12:54:24;;;;;;;46.30;35.43;;;;;;;;;;5086839;28;20549;-70
2022/05/19 12:56:53;;;;;;;58.33;35.37;;;;;;;;;;5086838;28;20027;-70
2022/05/19 12:59:26;;;;;;;46.67;35.20;;;;;;;;;;5099895;28;20028;-70
2022/05/19 13:02:00;;;;;;;53.57;32.63;;;;;;;;;;5112928;28;20028;-70
2022/05/19 13:04:29;;;;;;;43.60;32.67;;;;;;;;;;5116081;28;20028;-71
2022/05/19 13:06:59;;;;;;;44.50;32.83;;;;;;;;;;5116190;28;20039;-70
2022/05/19 13:09:33;;;;;;;40.87;29.13;;;;;;;;;;5116271;28;20031;-70
2022/05/19 13:12:26;;;;;;;39.10;28.93;;;;;;;;;;5113533;28;20365;-70
2022/05/19 13:14:55;;;;;;;39.83;29.87;;;;;;;;;;5106471;28;20469;-71
2022/05/19 13:17:28;;;;;;;40.97;30.03;;;;;;;;;;5110552;28;20195;-70
2022/05/19 13:19:54;;;;;;;43.40;30.93;;;;;;;;;;5108474;28;20024;-70
2022/05/19 13:22:23;;;;;;;47.47;32.20;;;;;;;;;;5105837;28;20042;-70
2022/05/19 13:24:50;;;;;;;44.43;31.27;;;;;;;;;;5116043;28;20019;-70
2022/05/19 13:30:43;;;;;;;41.90;27.90;;;;;;;;;;5076563;28;20032;-70
2022/05/19 13:33:11;;;;;;;43.03;30.70;;;;;;;;;;5115539;28;20028;-70
2022/05/19 13:35:38;;;;;;;44.13;28.93;;;;;;;;;;5110395;28;20027;-71
2022/05/19 13:38:18;;;;;;;40.40;29.93;;;;;;;;;;5090089;28;20088;-71
2022/05/19 13:40:46;;;;;;;48.80;34.63;;;;;;;;;;5088943;28;20028;-71
2022/05/19 13:43:14;;;;;;;39.53;28.70;;;;;;;;;;5089700;28;20436;-71
2022/05/19 13:45:48;;;;;;;43.60;29.67;;;;;;;;;;5094986;28;20027;-70
2022/05/19 13:48:21;;;;;;;44.35;32.45;;;;;;;;;;5095047;28;20024;-71
2022/05/19 13:50:49;;;;;;;46.60;32.03;;;;;;;;;;5094880;28;20434;-71
2022/05/19 13:53:18;;;;;;;38.07;29.60;;;;;;;;;;5094908;28;20016;-70
2022/05/19 13:55:44;;;;;;;41.03;29.93;;;;;;;;;;5094054;28;20024;-71
2022/05/19 13:58:18;;;;;;;45.03;28.87;;;;;;;;;;5089409;28;20028;-71
2022/05/19 14:00:45;;;;;;;41.00;28.33;;;;;;;;;;5089388;28;20016;-71
2022/05/19 14:03:12;;;;;;;41.90;28.20;;;;;;;;;;5089205;28;20428;-71
2022/05/19 14:05:41;;;;;;;37.03;27.87;;;;;;;;;;5104552;28;20027;-70
2022/05/19 14:08:10;;;;;;;41.60;28.97;;;;;;;;;;5114868;28;20038;-71
2022/05/19 14:10:42;;;;;;;35.50;27.00;;;;;;;;;;5115038;28;20058;-71
2022/05/19 14:13:11;;;;;;;38.13;28.83;;;;;;;;;;5114335;28;20012;-70
2022/05/19 14:15:48;;;;;;;34.17;26.90;;;;;;;;;;5112957;28;20487;-71
2022/05/19 14:18:26;;;;;;;35.93;28.67;;;;;;;;;;5112892;28;20409;-71
2022/05/19 14:21:03;;;;;;;32.03;23.40;;;;;;;;;;5109171;28;20016;-71
2022/05/19 14:23:47;;;;;;;35.17;26.77;;;;;;;;;;5109220;28;20438;-71
2022/05/19 14:26:17;;;;;;;37.47;28.60;;;;;;;;;;5109078;28;20024;-71
2022/05/19 14:28:44;;;;;;;38.70;28.73;;;;;;;;;;5110999;28;20100;-71
2022/05/19 14:31:29;;;;;;;33.13;26.33;;;;;;;;;;5095393;28;20031;-70
2022/05/19 14:34:02;;;;;;;29.48;22.15;;;;;;;;;;5094125;28;20038;-71
2022/05/19 14:36:34;;;;;;;30.30;23.73;;;;;;;;;;5093668;28;20024;-71
2022/05/19 14:39:05;;;;;;;31.83;21.93;;;;;;;;;;5094077;28;20039;-71
2022/05/19 14:44:28;;;;;;;31.70;21.60;;;;;;;;;;5091076;28;20486;-71
2022/05/19 14:47:04;;;;;;;26.40;19.50;;;;;;;;;;5108829;28;20098;-71
2022/05/19 14:49:35;;;;;;;28.47;21.13;;;;;;;;;;5108708;28;20016;-71
2022/05/19 14:55:07;;;;;;;27.60;19.73;;;;;;;;;;5113702;28;20111;-71
2022/05/19 14:57:36;;;;;;;28.23;21.37;;;;;;;;;;5113903;28;20069;-71
2022/05/19 15:00:03;;;;;;;26.37;19.77;;;;;;;;;;5114121;28;20370;-71
2022/05/19 15:02:31;;;;;;;26.80;19.67;;;;;;;;;;5113306;28;20011;-71
2022/05/19 15:04:58;;;;;;;32.30;21.70;;;;;;;;;;5107890;28;20211;-71
2022/05/19 15:07:31;;;;;;;27.67;19.10;;;;;;;;;;5108283;28;20118;-71
2022/05/19 15:09:58;;;;;;;23.30;19.20;;;;;;;;;;5108506;28;20099;-71
2022/05/19 15:12:25;;;;;;;28.13;19.67;;;;;;;;;;5104359;28;20028;-71
2022/05/19 15:14:51;;;;;;;27.00;21.73;;;;;;;;;;5093431;28;20078;-71